createdAt,value
2018-06-16T00:00:33.983Z,65.82
2018-06-16T00:03:01.662Z,65.70
2018-06-16T00:05:29.418Z,65.77
2018-06-16T00:07:57.167Z,65.29
2018-06-16T00:10:24.878Z,65.45
2018-06-16T00:12:52.562Z,66.26
2018-06-16T00:15:20.292Z,66.17
2018-06-16T00:17:47.979Z,66.54
2018-06-16T00:20:15.662Z,66.47
2018-06-16T00:22:43.366Z,65.96
2018-06-16T00:25:11.071Z,66.32
2018-06-16T00:27:38.776Z,66.09
2018-06-16T00:30:06.423Z,66.15
2018-06-16T00:32:34.139Z,66.22
2018-06-16T00:35:01.855Z,66.81
2018-06-16T00:37:29.535Z,67.07
2018-06-16T00:39:57.250Z,67.55
2018-06-16T00:42:25.023Z,67.60
2018-06-16T00:44:52.985Z,67.78
2018-06-16T00:47:20.646Z,67.36
2018-06-16T00:49:48.325Z,67.42
2018-06-16T00:52:15.989Z,67.87
2018-06-16T00:54:43.684Z,68.06
2018-06-16T00:57:17.231Z,67.89
2018-06-16T00:59:44.837Z,67.94
2018-06-16T01:02:12.495Z,67.98
2018-06-16T01:04:40.181Z,68.78
2018-06-16T01:07:07.847Z,68.81
2018-06-16T01:09:35.732Z,69.00
2018-06-16T01:12:03.415Z,69.03
2018-06-16T01:14:31.107Z,69.41
2018-06-16T01:16:58.902Z,69.83
2018-06-16T01:19:26.670Z,69.80
2018-06-16T01:21:54.395Z,70.17
2018-06-16T01:24:22.066Z,69.86
2018-06-16T01:26:49.814Z,69.84
2018-06-16T01:29:17.502Z,69.75
2018-06-16T01:31:45.146Z,69.49
2018-06-16T01:34:12.822Z,69.63
2018-06-16T01:36:40.537Z,69.66
2018-06-16T01:39:09.687Z,69.55
2018-06-16T01:41:37.501Z,69.35
2018-06-16T01:44:05.515Z,69.20
2018-06-16T01:46:33.420Z,69.51
2018-06-16T01:49:01.496Z,69.38
2018-06-16T01:51:29.192Z,69.31
2018-06-16T01:53:56.925Z,69.04
2018-06-16T01:56:24.596Z,69.69
2018-06-16T01:58:52.610Z,70.55
2018-06-16T02:01:20.323Z,70.14
2018-06-16T02:03:48.003Z,70.49
2018-06-16T02:06:15.659Z,70.76
2018-06-16T02:08:43.361Z,71.09
2018-06-16T02:11:11.073Z,70.76
2018-06-16T02:13:38.733Z,70.49
2018-06-16T02:16:06.410Z,71.36
2018-06-16T02:18:34.071Z,71.03
2018-06-16T02:21:02.015Z,70.96
2018-06-16T02:23:29.711Z,70.96
2018-06-16T02:25:57.387Z,71.06
2018-06-16T02:28:25.065Z,71.12
2018-06-16T02:30:52.748Z,71.33
2018-06-16T02:33:20.398Z,71.42
2018-06-16T02:35:48.232Z,71.04
2018-06-16T02:38:15.991Z,71.43
2018-06-16T02:40:43.759Z,71.83
2018-06-16T02:43:11.514Z,71.58
2018-06-16T02:45:40.278Z,71.37
2018-06-16T02:48:08.061Z,71.88
2018-06-16T02:50:35.965Z,71.81
2018-06-16T02:53:03.567Z,72.08
2018-06-16T02:55:31.283Z,71.71
2018-06-16T02:57:58.947Z,72.10
2018-06-16T03:00:26.785Z,71.57
2018-06-16T03:02:54.451Z,71.43
2018-06-16T03:05:22.734Z,71.24
2018-06-16T03:07:50.882Z,71.44
2018-06-16T03:10:18.617Z,71.28
2018-06-16T03:12:46.293Z,71.57
2018-06-16T03:15:14.035Z,71.93
2018-06-16T03:17:41.794Z,71.47
2018-06-16T03:20:09.495Z,71.95
2018-06-16T03:22:37.233Z,72.41
2018-06-16T03:25:04.915Z,72.70
2018-06-16T03:27:32.566Z,73.32
2018-06-16T03:30:00.242Z,73.72
2018-06-16T03:32:27.931Z,73.79
2018-06-16T03:34:55.951Z,73.63
2018-06-16T03:37:23.714Z,73.23
2018-06-16T03:39:51.533Z,73.56
2018-06-16T03:42:19.184Z,73.71
2018-06-16T03:44:46.888Z,73.90
2018-06-16T03:47:14.595Z,73.53
2018-06-16T03:49:42.257Z,73.56
2018-06-16T03:52:10.102Z,72.83
2018-06-16T03:54:37.863Z,72.80
2018-06-16T03:57:05.521Z,72.43
2018-06-16T03:59:33.192Z,72.54
2018-06-16T04:02:00.878Z,72.22
2018-06-16T04:04:28.543Z,71.41
2018-06-16T04:06:56.223Z,71.56
2018-06-16T04:09:23.939Z,71.19
2018-06-16T04:11:51.606Z,70.81
2018-06-16T04:14:19.883Z,70.98
2018-06-16T04:16:47.819Z,70.80
2018-06-16T04:19:15.602Z,70.64
2018-06-16T04:21:43.378Z,70.55
2018-06-16T04:24:11.051Z,69.97
2018-06-16T04:26:38.718Z,69.60
2018-06-16T04:29:06.435Z,69.11
2018-06-16T04:31:34.151Z,69.07
2018-06-16T04:34:01.927Z,68.88
2018-06-16T04:36:29.612Z,68.41
2018-06-16T04:38:57.406Z,68.25
2018-06-16T04:41:25.083Z,67.37
2018-06-16T04:43:52.782Z,66.46
2018-06-16T04:46:20.476Z,66.13
2018-06-16T04:48:48.154Z,65.46
2018-06-16T04:51:16.467Z,64.91
2018-06-16T04:53:44.167Z,63.96
2018-06-16T04:56:11.893Z,64.05
2018-06-16T04:58:39.612Z,64.15
2018-06-16T05:01:07.307Z,63.21
2018-06-16T05:03:35.043Z,62.90
2018-06-16T05:06:02.840Z,62.05
2018-06-16T05:08:30.694Z,62.01
2018-06-16T05:10:58.482Z,60.86
2018-06-16T05:13:26.155Z,61.17
2018-06-16T05:15:53.884Z,58.67
2018-06-16T05:18:21.555Z,59.62
2018-06-16T05:20:49.331Z,59.21
2018-06-16T05:23:17.011Z,57.44
2018-06-16T05:25:44.747Z,58.26
2018-06-16T05:28:12.419Z,58.45
2018-06-16T05:30:40.101Z,57.59
2018-06-16T05:33:07.766Z,56.36
2018-06-16T05:35:35.453Z,55.25
2018-06-16T05:38:03.173Z,55.49
2018-06-16T05:40:30.992Z,55.09
2018-06-16T05:42:58.731Z,55.40
2018-06-16T05:45:26.410Z,54.41
2018-06-16T05:47:54.134Z,52.27
2018-06-16T05:50:21.992Z,52.50
2018-06-16T05:52:49.691Z,52.45
2018-06-16T05:55:17.359Z,52.43
2018-06-16T05:57:45.087Z,49.06
2018-06-16T06:00:12.803Z,47.97
2018-06-16T06:02:40.491Z,48.10
2018-06-16T06:05:08.214Z,48.11
2018-06-16T06:07:35.946Z,46.31
2018-06-16T06:10:03.686Z,46.57
2018-06-16T06:12:31.370Z,46.41
2018-06-16T06:14:59.286Z,46.34
2018-06-16T06:17:26.951Z,46.13
2018-06-16T06:19:54.610Z,46.84
2018-06-16T06:22:22.313Z,46.35
2018-06-16T06:24:49.994Z,45.46
2018-06-16T06:27:17.708Z,46.32
2018-06-16T06:29:45.430Z,44.83
2018-06-16T06:32:13.138Z,44.71
2018-06-16T06:34:40.859Z,44.72
2018-06-16T06:37:08.548Z,43.46
2018-06-16T06:39:36.254Z,42.74
2018-06-16T06:42:03.993Z,43.02
2018-06-16T06:44:31.818Z,42.16
2018-06-16T06:46:59.514Z,40.91
2018-06-16T06:49:27.254Z,40.19
2018-06-16T06:51:54.982Z,39.98
2018-06-16T06:54:22.662Z,38.50
2018-06-16T06:56:50.368Z,38.26
2018-06-16T06:59:18.311Z,37.07
2018-06-16T07:01:45.994Z,36.75
2018-06-16T07:04:13.704Z,36.09
2018-06-16T07:06:41.420Z,37.03
2018-06-16T07:09:10.476Z,35.58
2018-06-16T07:11:38.182Z,35.82
2018-06-16T07:14:05.922Z,35.21
2018-06-16T07:16:33.631Z,35.00
2018-06-16T07:19:01.331Z,33.13
2018-06-16T07:21:29.063Z,32.79
2018-06-16T07:23:57.768Z,33.19
2018-06-16T07:26:25.528Z,31.84
2018-06-16T07:28:53.298Z,31.72
2018-06-16T07:31:21.023Z,32.26
2018-06-16T07:33:48.767Z,30.50
2018-06-16T07:36:16.517Z,29.60
2018-06-16T07:38:44.357Z,30.00
2018-06-16T07:41:12.059Z,29.78
2018-06-16T07:43:39.743Z,28.64
2018-06-16T07:46:07.463Z,28.19
2018-06-16T07:48:35.139Z,27.84
2018-06-16T07:51:02.866Z,26.77
2018-06-16T07:53:30.606Z,26.82
2018-06-16T07:55:58.316Z,26.63
2018-06-16T07:58:26.079Z,26.78
2018-06-16T08:00:53.831Z,25.75
2018-06-16T08:03:21.552Z,24.21
2018-06-16T08:05:49.263Z,26.81
2018-06-16T08:08:17.006Z,25.03
2018-06-16T08:10:44.702Z,26.00
2018-06-16T08:13:12.492Z,25.27
2018-06-16T08:15:40.214Z,23.54
2018-06-16T08:18:07.951Z,23.70
2018-06-16T08:20:35.854Z,25.45
2018-06-16T08:23:03.577Z,24.71
2018-06-16T08:25:31.296Z,21.18
2018-06-16T08:27:59.018Z,22.35
2018-06-16T08:30:26.715Z,21.01
2018-06-16T08:32:54.427Z,20.60
2018-06-16T08:35:22.159Z,20.21
2018-06-16T08:37:49.851Z,19.84
2018-06-16T08:40:17.519Z,19.50
2018-06-16T08:42:45.198Z,19.89
2018-06-16T08:45:12.932Z,19.51
2018-06-16T08:47:40.620Z,19.65
2018-06-16T08:50:08.318Z,19.71
2018-06-16T08:52:36.032Z,20.28
2018-06-16T08:55:04.113Z,18.32
2018-06-16T08:57:31.807Z,18.88
2018-06-16T08:59:59.507Z,21.02
2018-06-16T09:02:27.190Z,20.21
2018-06-16T09:04:54.928Z,18.57
2018-06-16T09:07:22.611Z,17.67
2018-06-16T09:09:50.680Z,17.56
2018-06-16T09:12:18.412Z,18.49
2018-06-16T09:14:46.103Z,18.08
2018-06-16T09:17:13.841Z,17.35
2018-06-16T09:19:41.534Z,16.77
2018-06-16T09:22:09.261Z,17.01
2018-06-16T09:24:36.971Z,16.86
2018-06-16T09:27:04.687Z,17.97
2018-06-16T09:29:32.403Z,18.77
2018-06-16T09:32:00.090Z,18.20
2018-06-16T09:34:27.811Z,19.06
2018-06-16T09:36:55.602Z,18.44
2018-06-16T09:39:23.292Z,16.69
2018-06-16T09:41:51.005Z,18.38
2018-06-16T09:44:18.694Z,18.02
2018-06-16T09:46:46.419Z,17.88
2018-06-16T09:49:14.130Z,18.69
2018-06-16T09:51:42.123Z,18.53
2018-06-16T09:54:09.815Z,19.27
2018-06-16T09:56:37.644Z,17.22
2018-06-16T09:59:05.422Z,18.96
2018-06-16T10:01:33.099Z,18.56
2018-06-16T10:04:00.836Z,19.00
2018-06-16T10:06:28.521Z,18.15
2018-06-16T10:08:56.266Z,19.11
2018-06-16T10:11:24.980Z,18.23
2018-06-16T10:13:52.823Z,17.46
2018-06-16T10:16:20.547Z,17.96
2018-06-16T10:18:48.248Z,18.14
2018-06-16T10:21:15.986Z,17.55
2018-06-16T10:23:43.671Z,17.66
2018-06-16T10:26:11.498Z,17.63
2018-06-16T10:28:39.184Z,17.11
2018-06-16T10:31:06.919Z,18.14
2018-06-16T10:33:34.631Z,18.54
2018-06-16T10:36:02.332Z,18.73
2018-06-16T10:38:30.222Z,18.05
2018-06-16T10:40:57.897Z,18.98
2018-06-16T10:43:25.577Z,18.61
2018-06-16T10:45:53.382Z,18.42
2018-06-16T10:48:21.054Z,17.75
2018-06-16T10:50:49.211Z,19.33
2018-06-16T10:53:16.937Z,19.07
2018-06-16T10:55:44.757Z,19.07
2018-06-16T10:58:12.444Z,18.20
2018-06-16T11:00:40.183Z,18.78
2018-06-16T11:03:08.188Z,19.18
2018-06-16T11:05:35.868Z,19.75
2018-06-16T11:08:03.587Z,20.03
2018-06-16T11:10:31.344Z,19.68
2018-06-16T11:12:59.043Z,20.61
2018-06-16T11:15:26.733Z,19.21
2018-06-16T11:17:54.460Z,20.20
2018-06-16T11:20:22.131Z,20.95
2018-06-16T11:22:49.846Z,20.30
2018-06-16T11:25:17.583Z,21.39
2018-06-16T11:27:45.281Z,21.75
2018-06-16T11:30:13.278Z,20.52
2018-06-16T11:32:40.964Z,21.64
2018-06-16T11:35:08.718Z,21.55
2018-06-16T11:37:36.876Z,23.55
2018-06-16T11:40:04.864Z,23.66
2018-06-16T11:42:32.535Z,24.07
2018-06-16T11:45:00.242Z,23.29
2018-06-16T11:47:27.949Z,23.31
2018-06-16T11:49:55.720Z,22.33
2018-06-16T11:52:23.463Z,23.55
2018-06-16T11:54:51.474Z,24.07
2018-06-16T11:57:19.180Z,24.05
2018-06-16T11:59:46.900Z,24.62
2018-06-16T12:02:14.601Z,24.00
2018-06-16T12:04:42.240Z,25.09
2018-06-16T12:07:09.917Z,24.24
2018-06-16T12:09:37.662Z,24.82
2018-06-16T12:12:05.443Z,24.53
2018-06-16T12:14:33.123Z,23.22
2018-06-16T12:17:00.865Z,24.69
2018-06-16T12:19:28.554Z,24.74
2018-06-16T12:21:56.227Z,26.03
2018-06-16T12:24:23.936Z,25.30
2018-06-16T12:26:51.631Z,26.69
2018-06-16T12:29:20.441Z,26.76
2018-06-16T12:31:48.143Z,24.55
2018-06-16T12:34:15.840Z,23.50
2018-06-16T12:36:43.539Z,25.65
2018-06-16T12:39:11.481Z,26.14
2018-06-16T12:41:39.478Z,24.94
2018-06-16T12:44:07.196Z,26.58
2018-06-16T12:46:34.879Z,25.62
2018-06-16T12:49:02.643Z,26.68
2018-06-16T12:51:30.338Z,25.44
2018-06-16T12:53:58.090Z,26.12
2018-06-16T12:56:26.256Z,25.78
2018-06-16T12:58:53.950Z,25.11
2018-06-16T13:01:21.723Z,25.19
2018-06-16T13:03:49.722Z,24.90
2018-06-16T13:06:17.430Z,26.25
2018-06-16T13:08:45.126Z,26.27
2018-06-16T13:11:13.135Z,26.27
2018-06-16T13:13:40.818Z,25.82
2018-06-16T13:16:08.515Z,25.21
2018-06-16T13:18:36.246Z,25.86
2018-06-16T13:21:03.947Z,25.66
2018-06-16T13:23:31.698Z,26.40
2018-06-16T13:25:59.418Z,26.69
2018-06-16T13:28:27.094Z,26.90
2018-06-16T13:30:54.811Z,26.88
2018-06-16T13:33:22.557Z,26.19
2018-06-16T13:35:50.256Z,25.84
2018-06-16T13:38:17.979Z,26.18
2018-06-16T13:40:45.671Z,26.62
2018-06-16T13:43:13.473Z,26.71
2018-06-16T13:45:41.266Z,27.01
2018-06-16T13:48:09.011Z,26.78
2018-06-16T13:50:36.694Z,26.55
2018-06-16T13:53:04.567Z,26.93
2018-06-16T13:55:32.263Z,26.38
2018-06-16T13:58:00.014Z,26.26
2018-06-16T14:00:27.735Z,25.96
2018-06-16T14:02:55.438Z,27.53
2018-06-16T14:05:23.116Z,26.85
2018-06-16T14:07:50.845Z,26.20
2018-06-16T14:10:19.603Z,26.46
2018-06-16T14:12:47.293Z,25.73
2018-06-16T14:15:14.974Z,26.36
2018-06-16T14:17:42.719Z,26.00
2018-06-16T14:20:10.591Z,26.55
2018-06-16T14:22:38.696Z,27.47
2018-06-16T14:25:06.415Z,27.29
2018-06-16T14:27:34.191Z,27.53
2018-06-16T14:30:02.936Z,26.35
2018-06-16T14:32:30.670Z,26.33
2018-06-16T14:34:58.342Z,27.78
2018-06-16T14:37:26.087Z,26.75
2018-06-16T14:39:53.791Z,26.16
2018-06-16T14:42:21.555Z,26.84
2018-06-16T14:44:49.264Z,27.34
2018-06-16T14:47:16.954Z,26.04
2018-06-16T14:49:44.648Z,27.59
2018-06-16T14:52:12.407Z,27.67
2018-06-16T14:54:40.146Z,26.68
2018-06-16T14:57:07.832Z,26.62
2018-06-16T14:59:35.508Z,26.41
2018-06-16T15:02:03.275Z,26.38
2018-06-16T15:04:31.003Z,27.00
2018-06-16T15:06:58.959Z,27.17
2018-06-16T15:09:26.717Z,26.96
2018-06-16T15:11:54.369Z,27.25
2018-06-16T15:14:22.131Z,27.52
2018-06-16T15:16:49.866Z,27.98
2018-06-16T15:19:17.615Z,27.66
2018-06-16T15:21:45.315Z,27.69
2018-06-16T15:24:12.990Z,26.67
2018-06-16T15:26:40.946Z,26.28
2018-06-16T15:29:08.674Z,27.98
2018-06-16T15:31:36.413Z,27.08
2018-06-16T15:34:04.252Z,26.87
2018-06-16T15:36:32.005Z,26.58
2018-06-16T15:38:59.733Z,27.45
2018-06-16T15:41:27.471Z,27.66
2018-06-16T15:43:55.226Z,27.87
2018-06-16T15:46:22.951Z,27.58
2018-06-16T15:48:50.651Z,27.13
2018-06-16T15:51:18.407Z,27.15
2018-06-16T15:53:46.151Z,27.01
2018-06-16T15:56:13.846Z,27.36
2018-06-16T15:58:41.530Z,27.02
2018-06-16T16:01:09.252Z,26.92
2018-06-16T16:03:36.963Z,27.68
2018-06-16T16:06:04.812Z,26.88
2018-06-16T16:08:32.527Z,27.11
2018-06-16T16:11:00.202Z,26.30
2018-06-16T16:13:27.914Z,26.37
2018-06-16T16:15:55.708Z,26.85
2018-06-16T16:18:23.449Z,27.80
2018-06-16T16:20:51.122Z,28.31
2018-06-16T16:23:18.877Z,27.89
2018-06-16T16:25:46.596Z,27.26
2018-06-16T16:28:14.263Z,27.89
2018-06-16T16:30:42.340Z,27.59
2018-06-16T16:33:10.059Z,27.62
2018-06-16T16:35:37.737Z,27.97
2018-06-16T16:38:05.602Z,27.64
2018-06-16T16:40:33.294Z,28.07
2018-06-16T16:43:00.963Z,26.95
2018-06-16T16:45:28.727Z,27.24
2018-06-16T16:47:56.505Z,27.00
2018-06-16T16:50:24.194Z,27.33
2018-06-16T16:52:52.023Z,27.07
2018-06-16T16:55:19.719Z,27.40
2018-06-16T16:57:47.466Z,27.25
2018-06-16T17:00:15.234Z,27.13
2018-06-16T17:02:42.926Z,27.96
2018-06-16T17:05:10.623Z,27.67
2018-06-16T17:07:38.314Z,28.01
2018-06-16T17:10:06.161Z,29.40
2018-06-16T17:12:33.850Z,28.88
2018-06-16T17:15:01.559Z,29.55
2018-06-16T17:17:29.314Z,30.02
2018-06-16T17:19:56.994Z,31.14
2018-06-16T17:22:25.011Z,30.83
2018-06-16T17:24:52.762Z,31.49
2018-06-16T17:27:20.487Z,30.81
2018-06-16T17:29:48.259Z,31.93
2018-06-16T17:32:15.936Z,32.53
2018-06-16T17:34:43.634Z,32.65
2018-06-16T17:37:11.354Z,34.19
2018-06-16T17:39:39.031Z,35.17
2018-06-16T17:42:06.746Z,35.45
2018-06-16T17:44:34.467Z,36.42
2018-06-16T17:47:02.203Z,36.81
2018-06-16T17:49:29.931Z,36.47
2018-06-16T17:51:57.618Z,36.88
2018-06-16T17:54:25.343Z,37.20
2018-06-16T17:56:53.042Z,38.16
2018-06-16T17:59:20.742Z,38.36
2018-06-16T18:01:48.954Z,38.39
2018-06-16T18:04:16.679Z,38.64
2018-06-16T18:06:44.453Z,39.24
2018-06-16T18:09:12.679Z,40.19
2018-06-16T18:11:40.482Z,40.26
2018-06-16T18:14:08.643Z,39.51
2018-06-16T18:16:36.306Z,39.83
2018-06-16T18:19:04.059Z,40.17
2018-06-16T18:21:32.074Z,40.21
2018-06-16T18:23:59.799Z,40.32
2018-06-16T18:26:27.512Z,40.37
2018-06-16T18:28:55.283Z,40.40
2018-06-16T18:31:23.971Z,40.69
2018-06-16T18:33:51.658Z,40.50
2018-06-16T18:36:19.311Z,40.42
2018-06-16T18:38:47.016Z,40.39
2018-06-16T18:41:14.715Z,40.86
2018-06-16T18:43:42.417Z,40.08
2018-06-16T18:46:10.192Z,40.36
2018-06-16T18:48:37.925Z,39.43
2018-06-16T18:51:05.674Z,39.72
2018-06-16T18:53:33.351Z,40.19
2018-06-16T18:56:01.151Z,40.25
2018-06-16T18:58:28.846Z,40.50
2018-06-16T19:00:56.534Z,41.89
2018-06-16T19:03:24.209Z,42.28
2018-06-16T19:05:51.931Z,41.77
2018-06-16T19:08:19.667Z,40.80
2018-06-16T19:10:47.391Z,41.49
2018-06-16T19:13:15.071Z,41.69
2018-06-16T19:15:42.860Z,41.99
2018-06-16T19:18:10.576Z,42.30
2018-06-16T19:20:38.301Z,42.80
2018-06-16T19:23:07.137Z,43.48
2018-06-16T19:25:34.751Z,43.62
2018-06-16T19:28:02.522Z,43.88
2018-06-16T19:30:30.242Z,42.49
2018-06-16T19:32:57.931Z,43.62
2018-06-16T19:35:25.687Z,45.27
2018-06-16T19:37:53.436Z,46.08
2018-06-16T19:40:21.152Z,45.93
2018-06-16T19:42:48.871Z,45.33
2018-06-16T19:45:16.569Z,45.49
2018-06-16T19:47:44.296Z,45.50
2018-06-16T19:50:12.023Z,45.90
2018-06-16T19:52:39.785Z,46.25
2018-06-16T19:55:07.654Z,46.21
2018-06-16T19:57:35.339Z,46.06
2018-06-16T20:00:03.170Z,45.94
2018-06-16T20:02:31.034Z,47.16
2018-06-16T20:04:59.676Z,46.69
2018-06-16T20:07:27.431Z,46.46
2018-06-16T20:09:55.181Z,46.26
2018-06-16T20:12:22.906Z,46.79
2018-06-16T20:14:50.594Z,47.47
2018-06-16T20:17:18.362Z,47.74
2018-06-16T20:19:46.147Z,47.79
2018-06-16T20:22:13.891Z,47.16
2018-06-16T20:24:41.599Z,49.99
2018-06-16T20:27:09.347Z,51.10
2018-06-16T20:29:37.286Z,51.52
2018-06-16T20:32:05.015Z,51.79
2018-06-16T20:34:32.760Z,50.69
2018-06-16T20:37:00.542Z,50.79
2018-06-16T20:39:28.234Z,50.33
2018-06-16T20:41:55.992Z,49.30
2018-06-16T20:44:23.728Z,48.71
2018-06-16T20:46:51.464Z,48.27
2018-06-16T20:49:19.123Z,48.26
2018-06-16T20:51:47.858Z,47.72
2018-06-16T20:54:15.561Z,48.43
2018-06-16T20:56:43.229Z,48.59
2018-06-16T20:59:10.956Z,48.75
2018-06-16T21:01:38.672Z,48.67
2018-06-16T21:04:06.422Z,49.37
2018-06-16T21:06:34.150Z,50.61
2018-06-16T21:09:01.923Z,51.21
2018-06-16T21:11:29.665Z,50.90
2018-06-16T21:13:57.349Z,51.66
2018-06-16T21:16:25.102Z,53.30
2018-06-16T21:18:52.815Z,52.96
2018-06-16T21:21:20.647Z,51.95
2018-06-16T21:23:48.311Z,52.46
2018-06-16T21:26:16.004Z,52.85
2018-06-16T21:28:43.687Z,52.99
2018-06-16T21:31:11.442Z,53.03
2018-06-16T21:33:39.157Z,53.11
2018-06-16T21:36:06.867Z,53.04
2018-06-16T21:38:34.640Z,53.06
2018-06-16T21:41:02.329Z,53.98
2018-06-16T21:43:30.039Z,54.07
2018-06-16T21:45:57.730Z,54.23
2018-06-16T21:48:25.450Z,54.15
2018-06-16T21:50:53.153Z,53.90
2018-06-16T21:53:20.860Z,54.29
2018-06-16T21:55:48.598Z,53.80
2018-06-16T21:58:16.293Z,53.96
2018-06-16T22:00:44.025Z,53.70
2018-06-16T22:03:11.751Z,54.34
2018-06-16T22:05:39.423Z,54.11
2018-06-16T22:08:12.835Z,55.65
2018-06-16T22:10:40.515Z,55.15
2018-06-16T22:13:08.230Z,55.94
2018-06-16T22:15:35.959Z,56.59
2018-06-16T22:18:03.702Z,56.39
2018-06-16T22:20:31.375Z,57.11
2018-06-16T22:22:59.126Z,57.83
2018-06-16T22:25:26.822Z,58.11
2018-06-16T22:27:54.495Z,59.01
2018-06-16T22:30:22.170Z,59.25
2018-06-16T22:32:49.882Z,58.32
2018-06-16T22:35:17.576Z,57.86
2018-06-16T22:37:45.278Z,56.12
2018-06-16T22:40:12.954Z,55.70
2018-06-16T22:42:41.008Z,56.42
2018-06-16T22:45:08.731Z,56.44
2018-06-16T22:47:36.436Z,56.00
2018-06-16T22:50:04.208Z,57.13
2018-06-16T22:52:31.870Z,57.90
2018-06-16T22:54:59.591Z,57.56
2018-06-16T22:57:27.395Z,58.45
2018-06-16T22:59:55.142Z,59.93
2018-06-16T23:02:22.891Z,60.37
2018-06-16T23:04:50.791Z,60.62
2018-06-16T23:07:18.592Z,60.72
2018-06-16T23:09:46.303Z,61.36
2018-06-16T23:12:13.954Z,61.66
2018-06-16T23:14:41.654Z,61.39
2018-06-16T23:17:09.358Z,62.13
2018-06-16T23:19:37.037Z,61.77
2018-06-16T23:22:04.779Z,60.79
2018-06-16T23:24:32.469Z,60.64
2018-06-16T23:27:00.195Z,62.33
2018-06-16T23:29:27.916Z,62.52
2018-06-16T23:31:55.606Z,62.66
2018-06-16T23:34:23.339Z,62.64
2018-06-16T23:36:51.114Z,62.76
2018-06-16T23:39:18.814Z,63.32
2018-06-16T23:41:46.503Z,63.38
2018-06-16T23:44:15.146Z,63.83
2018-06-16T23:46:42.860Z,63.26
2018-06-16T23:49:10.647Z,63.01
2018-06-16T23:51:38.380Z,62.59
2018-06-16T23:54:06.158Z,62.99
2018-06-16T23:56:33.874Z,63.69
2018-06-16T23:59:01.580Z,64.05
